CheckWX is a tool to help pilots better visualize weather data.  It is not intended as a substitute for an official pre-flight weather briefing.

18:01:58 UTC

KPDC METAR
Prairie Du Chien Municipal Airport
Prairie Du Chien, Wisconsin, USA
Current

7 mins ago

KPDC 241755Z AUTO 15008G18KT 10SM CLR 18/01 A2991 RMK AO2 T01800012 10180 20052
Observed
Apr-24 @ 17:55 UTC
Wind
  • 150° at 8 KTS
  • Gusting to 18 KTS
Visibility
10 SM
Flight Rules
VFR
Cloud Levels
  • Clear skies
Temperature
18°C / 64°F
Dewpoint
C / 34°F
Humidity
32%
Altimeter
29.91" Hg
Pressure
1012.92 hPa
Previous

27 mins ago

KPDC 241735Z AUTO 19008G14KT 10SM CLR 18/02 A2992 RMK AO2 T01770018
Observed
Apr-24 @ 17:35 UTC
Wind
  • 190° at 8 KTS
  • Gusting to 14 KTS
Visibility
10 SM
Flight Rules
VFR
Cloud Levels
  • Clear skies
Temperature
18°C / 64°F
Dewpoint
C / 36°F
Humidity
34%
Altimeter
29.92" Hg
Pressure
1013.22 hPa
Previous

47 mins ago

KPDC 241715Z AUTO 18007KT 10SM CLR 18/03 A2994 RMK AO2 T01760027
Observed
Apr-24 @ 17:15 UTC
Wind
  • 180° at 7 KTS
Visibility
10 SM
Flight Rules
VFR
Cloud Levels
  • Clear skies
Temperature
18°C / 64°F
Dewpoint
C / 37°F
Humidity
37%
Altimeter
29.94" Hg
Pressure
1013.92 hPa